Cherokee, Alabama
Current Conditions -  °F | °C
As of 12:53 PM on Sunday 23 Nov 2014 (Local Time) from KMSL Reporting Station
Heavy Rain Heavy Rain  
Wind Chill: 58°   Ceiling: 700
Heat Index: 58°   Visibility: 3mi
Dew Point: 55°   Wind: 15mph
Humidity: 90%   Direction: 120°ESE
Pressure: 29.55"   Gusts: 22mph
Location:  34.76°N, 87.97°W
Report Text: KMSL 231853Z AUTO 12013G19KT 3SM +RA BR OVC007 14/13 A2955 RMK AO2 SLP001 P0014 T01440128
Loading
Personal Weather Stations






























Interactive Weather Map New forecast layout! Learn more

10-Day Weather Forecast

Advertisements
Track Severe Weather on mobile